• Join FlightAware (Why Join?)
  • Login
  • US Flag 
08:52AM EST


 

Airport Tracker/Info


-or-


 

Live Flight TrackerFlight Track Log ✈ JBU1329 ✈ 07-May-2013 ✈ KBOS - KBWI

Flight Track Log - Related Links

Times and Time Zones

All times are in EDT time to prevent confusion due to time zone crossing. See the JBU1329 flight status page for this flight to view local times or setup timezone preferences in your user account.

Time Position Orientation Groundspeed Altitude Reporting Facility
EDT Latitude Longitude Course Direction KTS MPH feet Rate Location/Type
09:15AM 42.3500 -71.0167 240° Southwest 168 193 700  Level KA90
09:16AM 42.3069 -70.9214 121° Southeast 219 252 4,200 2,520 Climbing Boston Center
09:17AM 42.3888 -70.7388 144° Southeast  Level FlightAware Approximate
09:17AM 42.3267 -70.8367 72° East 232 267 7,100  Level Boston Center
09:18AM 42.2975 -70.7205 228° Southwest  Level FlightAware Approximate
09:18AM 42.3064 -70.7333 105° East 250 288 10,700  Level Boston Center
09:19AM 42.2340 -70.8157 228° Southwest  Level FlightAware Approximate
09:19AM 42.2208 -70.7300 178° South 221 254 12,500  Level Boston Center
09:20AM 42.1863 -70.9265 240° Southwest  Level FlightAware Approximate
09:20AM 42.1725 -70.8406 239° Southwest 221 254 15,300  Level Boston Center
09:21AM 42.1556 -70.9839 261° West 292 336 17,900 2,220 Climbing Boston Center
09:22AM 42.1383 -71.1186 260° West 348 400 19,800 2,100 Climbing Boston Center
09:23AM 42.1214 -71.2672 261° West 397 457 22,100 2,100 Climbing Boston Center
09:24AM 42.1039 -71.4158 261° West 410 472 24,100 1,680 Climbing Boston Center
09:25AM 42.0819 -71.5197 254° West 410 472 25,500 1,560 Climbing Boston Center
09:26AM 42.0144 -71.7081 244° Southwest 424 488 27,300 1,560 Climbing Boston Center
09:27AM 41.9592 -71.8511 243° Southwest 435 501 28,700 1,440 Climbing Boston Center
09:28AM 41.9056 -71.9911 243° Southwest 435 501 30,200 1,440 Climbing Boston Center
09:29AM 41.8497 -72.1336 242° Southwest 435 501 31,600 900 Climbing Boston Center
09:30AM 41.7939 -72.2786 243° Southwest 435 501 32,000 180 Climbing Boston Center
09:31AM 41.7378 -72.4233 243° Southwest 440 506 32,000  Level Boston Center
09:32AM 41.6814 -72.5708 243° Southwest 440 506 32,000  Level Boston Center
09:33AM 41.6247 -72.7178 243° Southwest 440 506 32,000  Level Boston Center
09:34AM 41.5658 -72.8644 242° Southwest 445 512 32,000  Level Boston Center
09:36AM 41.5175 -72.9892 243° Southwest 445 512 32,000  Level Boston Center
09:37AM 41.4147 -73.2528 243° Southwest 425 489 32,000  Level New York Center
09:38AM 41.3553 -73.3969 241° Southwest 431 496 32,000  Level New York Center
09:39AM 41.3000 -73.5411 243° Southwest 436 502 32,000  Level New York Center
09:40AM 41.2278 -73.6789 235° Southwest 447 514 32,000  Level New York Center
09:41AM 41.1517 -73.8050 231° Southwest 447 514 32,000  Level New York Center
09:42AM 41.0756 -73.9336 232° Southwest 453 521 32,000  Level New York Center
09:43AM 40.9969 -74.0619 231° Southwest 464 534 32,000  Level New York Center
09:44AM 40.9097 -74.2006 230° Southwest 457 526 32,000 -180 Level New York Center
09:45AM 40.8331 -74.3256 231° Southwest 457 526 31,700 -900 Descending New York Center
09:46AM 40.7583 -74.4531 232° Southwest 451 519 30,200 -1,500 Descending New York Center
09:47AM 40.6814 -74.5775 231° Southwest 451 519 28,700 -1,140 Descending New York Center
09:48AM 40.6086 -74.7019 232° Southwest 451 519 28,000 -360 Descending New York Center
09:49AM 40.5294 -74.8231 229° Southwest 451 519 28,000 -600 Level New York Center
09:50AM 40.4486 -74.9328 226° Southwest 446 513 26,800 -1,800 Descending New York Center
09:51AM 40.3694 -75.0453 227° Southwest 429 494 24,400 -2,400 Descending New York Center
09:52AM 40.2928 -75.1519 227° Southwest 424 488 22,000 -2,460 Descending New York Center
09:53AM 40.2267 -75.2456 227° Southwest 415 478 19,600 -2,040 Descending New York Center
09:54AM 40.1519 -75.3469 226° Southwest 402 463 18,000 -840 Descending New York Center
09:55AM 40.0767 -75.4558 228° Southwest 378 435 18,000  Level New York Center
09:56AM 40.0108 -75.5408 225° Southwest 378 435 18,000 -360 Level New York Center
09:57AM 39.9333 -75.6492 227° Southwest 378 435 17,300 -960 Descending New York Center
09:58AM 39.8794 -75.7456 234° Southwest 371 427 16,200 -1,020 Descending New York Center
09:59AM 39.8158 -75.8628 235° Southwest 371 427 15,300 -1,320 Descending New York Center
10:01AM 39.7000 -76.1000 238° Southwest 342 394 12,000 -1,080 Descending Potomac TRACON
10:02AM 39.6500 -76.1833 232° Southwest 306 352 12,000 -660 Level Potomac TRACON
10:03AM 39.6000 -76.2833 237° Southwest 306 352 10,800 -1,440 Descending Potomac TRACON
10:04AM 39.5667 -76.3667 243° Southwest 302 348 9,500 -1,500 Descending Potomac TRACON
10:05AM 39.5333 -76.4500 243° Southwest 294 338 8,000 -1,500 Descending Potomac TRACON
10:06AM 39.5000 -76.5500 247° West 279 321 6,500 -1,680 Descending Potomac TRACON
10:07AM 39.4667 -76.6333 243° Southwest 282 325 4,900 -1,380 Descending Potomac TRACON
10:08AM 39.4333 -76.7167 243° Southwest 282 325 4,000 -480 Descending Potomac TRACON
10:09AM 39.4000 -76.8000 243° Southwest 283 326 4,000  Level Potomac TRACON
10:10AM 39.3667 -76.8833 243° Southwest 282 325 4,000 -240 Level Potomac TRACON
10:11AM 39.3167 -76.9667 232° Southwest 273 314 3,600 -540 Descending Potomac TRACON
10:12AM 39.2500 -76.9833 191° South 250 288 3,000 -540 Descending Potomac TRACON
10:13AM 39.2000 -76.9833 180° South 230 265 2,600 -300 Descending Potomac TRACON
10:14AM 39.1833 -76.9167 108° East 202 232 2,500 -120 Descending Potomac TRACON
10:15AM 39.1833 -76.8333 90° East 195 224 2,400 -480 Descending Potomac TRACON
10:16AM 39.1833 -76.7833 90° East 152 175 1,600 -780 Descending Potomac TRACON
10:17AM 39.1833 -76.7500 90° East 116 133 1,000 -660 Descending Potomac TRACON
10:18AM 39.1833 -76.7000 90° East 119 137 400 -600 Descending Potomac TRACON